Time;durP1;ratioP1;P1;durP2;ratioP2;P2;SDS_P1;SDS_P2;PMS_P1;PMS_P2;Temp;Humidity;BMP_temperature;BMP_pressure;BME280_temperature;BME280_humidity;BME280_pressure;Samples;Min_cycle;Max_cycle;Signal;HPM_P1;HPM_P2
2022/01/25 00:24:21;;;;;;;1.60;0.73;;;-1.70;99.90;;;;;;5047864;28;20488;-87
2022/01/25 00:27:01;;;;;;;0.60;0.60;;;-1.70;99.90;;;;;;5045967;28;20466;-87
2022/01/25 00:29:35;;;;;;;0.63;0.63;;;-1.70;99.90;;;;;;5061267;28;20454;-86
2022/01/25 00:32:02;;;;;;;2.50;0.60;;;-1.60;99.90;;;;;;5052173;28;21032;-87
2022/01/25 00:34:29;;;;;;;1.30;1.20;;;-1.60;99.90;;;;;;5049847;28;20453;-86
2022/01/25 00:36:58;;;;;;;1.10;1.00;;;-1.60;99.90;;;;;;5053457;28;20441;-86
2022/01/25 00:39:24;;;;;;;1.10;0.90;;;-1.60;99.90;;;;;;5042639;28;20943;-87
2022/01/25 00:41:51;;;;;;;1.13;0.90;;;-1.60;99.90;;;;;;5048263;28;20464;-85
2022/01/25 00:44:18;;;;;;;0.67;0.67;;;-1.60;99.90;;;;;;5054932;28;20514;-86
2022/01/25 00:46:45;;;;;;;1.10;0.80;;;-1.60;99.90;;;;;;5056436;28;20480;-86
2022/01/25 00:49:20;;;;;;;1.00;0.90;;;-1.60;99.90;;;;;;5046578;28;20461;-87
2022/01/25 00:52:04;;;;;;;0.80;0.67;;;-1.60;99.90;;;;;;5051433;23;20486;-54
2022/01/25 00:54:35;;;;;;;0.97;0.90;;;-1.60;99.90;;;;;;5050688;28;20448;-55
2022/01/25 00:57:02;;;;;;;1.43;1.17;;;-1.60;99.90;;;;;;5049087;28;20476;-55
2022/01/25 00:59:31;;;;;;;1.20;1.10;;;-1.50;99.90;;;;;;5050400;28;20492;-55
2022/01/25 01:01:59;;;;;;;1.20;1.10;;;-1.50;99.90;;;;;;5054819;28;20921;-55
2022/01/25 01:04:27;;;;;;;1.70;1.30;;;-1.50;99.90;;;;;;5051324;28;20522;-55
2022/01/25 01:06:55;;;;;;;1.60;1.20;;;-1.50;99.90;;;;;;5072601;23;20488;-51
2022/01/25 01:09:23;;;;;;;1.17;1.07;;;-1.50;99.90;;;;;;5048605;28;20449;-51
2022/01/25 01:11:58;;;;;;;0.83;0.80;;;-1.50;99.90;;;;;;5045746;28;20469;-51
2022/01/25 01:14:47;;;;;;;1.63;1.07;;;-1.50;99.90;;;;;;5060333;28;20957;-50
2022/01/25 01:17:49;;;;;;;0.80;0.80;;;-1.50;99.90;;;;;;5055857;28;20497;-53
2022/01/25 01:31:25;;;;;;;0.80;0.70;;;-1.60;99.90;;;;;;5051658;28;20434;-51
2022/01/25 01:34:17;;;;;;;0.90;0.70;;;-1.60;99.90;;;;;;5047061;28;20796;-50
2022/01/25 01:37:19;;;;;;;1.37;0.80;;;-1.60;99.90;;;;;;5056597;28;20471;-50
2022/01/25 01:40:08;;;;;;;1.47;0.63;;;-1.60;99.90;;;;;;5050606;28;20449;-48
2022/01/25 01:42:56;;;;;;;0.70;0.70;;;-1.60;99.90;;;;;;5057559;28;20458;-50
2022/01/25 01:45:37;;;;;;;0.87;0.63;;;-1.70;99.90;;;;;;5052806;28;20473;-51
2022/01/25 01:48:08;;;;;;;2.60;1.20;;;-1.70;99.90;;;;;;5046670;28;20457;-50
2022/01/25 01:50:36;;;;;;;1.00;1.00;;;-1.80;99.90;;;;;;5059178;28;20442;-51
2022/01/25 01:53:05;;;;;;;1.00;1.00;;;-1.80;99.90;;;;;;5057132;28;20441;-51
2022/01/25 01:55:32;;;;;;;1.17;0.90;;;-1.80;99.90;;;;;;5048807;28;20470;-50
2022/01/25 01:58:00;;;;;;;0.80;0.80;;;-1.80;99.90;;;;;;5048306;28;20937;-50
2022/01/25 02:00:31;;;;;;;0.83;0.83;;;-1.80;99.90;;;;;;5056660;28;20489;-51
2022/01/25 02:03:00;;;;;;;1.20;1.10;;;-1.80;99.90;;;;;;5050783;28;20511;-51
2022/01/25 02:05:28;;;;;;;1.30;1.20;;;-1.80;99.90;;;;;;5054761;28;20488;-50
2022/01/25 02:07:55;;;;;;;1.00;1.00;;;-1.70;99.90;;;;;;5052643;28;20539;-52
2022/01/25 02:10:22;;;;;;;1.07;0.97;;;-1.70;99.90;;;;;;5055382;28;21031;-53
2022/01/25 02:12:51;;;;;;;1.70;1.03;;;-1.70;99.90;;;;;;5059931;28;20980;-49
2022/01/25 02:15:18;;;;;;;0.90;0.70;;;-1.70;99.90;;;;;;5056378;28;20483;-51
2022/01/25 02:22:22;;;;;;;1.10;1.00;;;-1.80;99.90;;;;;;5050364;28;20456;-54
2022/01/25 02:23:29;;;;;;;0.87;0.80;;;-1.80;99.90;;;;;;5056741;28;20555;-50
2022/01/25 02:25:57;;;;;;;0.80;0.80;;;-1.80;99.90;;;;;;5067071;28;21013;-49
2022/01/25 02:28:29;;;;;;;1.13;1.07;;;-1.90;99.90;;;;;;5056589;28;20480;-50
2022/01/25 02:30:56;;;;;;;1.13;0.90;;;-1.90;99.90;;;;;;5045837;28;20469;-52
2022/01/25 02:33:24;;;;;;;1.03;1.00;;;-1.90;99.90;;;;;;5048952;28;20487;-52
2022/01/25 02:35:53;;;;;;;0.93;0.80;;;-1.80;99.90;;;;;;5047936;28;20500;-51
2022/01/25 02:38:25;;;;;;;0.60;0.60;;;-1.90;99.90;;;;;;5051098;28;20474;-50
2022/01/25 02:40:52;;;;;;;0.90;0.90;;;-1.90;99.90;;;;;;5050416;28;20480;-52
2022/01/25 02:43:21;;;;;;;1.43;0.60;;;-1.90;99.90;;;;;;5043712;28;20481;-50
2022/01/25 02:46:03;;;;;;;0.80;0.73;;;-1.80;99.90;;;;;;5050971;28;20853;-51
2022/01/25 02:48:30;;;;;;;0.60;0.60;;;-1.90;99.90;;;;;;5060591;28;20450;-51
2022/01/25 02:51:00;;;;;;;1.07;0.77;;;-1.80;99.90;;;;;;5056006;28;20449;-51
2022/01/25 02:53:27;;;;;;;2.40;1.00;;;-1.80;99.90;;;;;;5049311;28;20544;-49
2022/01/25 02:55:54;;;;;;;1.30;1.10;;;-1.80;99.90;;;;;;5047307;28;20493;-49
2022/01/25 02:58:22;;;;;;;1.40;1.17;;;-1.80;99.90;;;;;;5055869;28;20489;-50
2022/01/25 03:00:49;;;;;;;0.97;0.73;;;-1.80;99.90;;;;;;5061329;28;20551;-47
2022/01/25 03:03:16;;;;;;;0.80;0.80;;;-1.80;99.90;;;;;;5057234;28;20499;-51
2022/01/25 03:05:44;;;;;;;0.80;0.80;;;-1.90;99.90;;;;;;5052022;28;20599;-50
2022/01/25 03:08:14;;;;;;;1.13;1.03;;;-1.90;99.90;;;;;;5047865;28;20811;-50
2022/01/25 03:10:45;;;;;;;0.90;0.80;;;-2.00;99.90;;;;;;5052601;28;20524;-52
2022/01/25 03:13:17;;;;;;;1.10;1.00;;;-2.00;99.90;;;;;;5052874;28;20450;-53
2022/01/25 03:15:58;;;;;;;0.87;0.87;;;-2.10;99.90;;;;;;5049724;28;20587;-51
2022/01/25 03:18:40;;;;;;;0.73;0.73;;;-2.10;99.90;;;;;;5051047;28;20707;-51
2022/01/25 03:24:00;;;;;;;1.27;1.17;;;-2.10;99.90;;;;;;5031862;28;20504;-50
2022/01/25 03:26:28;;;;;;;2.00;1.37;;;-2.10;99.90;;;;;;5054100;28;20509;-50
2022/01/25 03:28:55;;;;;;;2.03;1.90;;;-2.00;99.90;;;;;;5046994;28;20461;-50
2022/01/25 03:31:23;;;;;;;2.40;1.60;;;-2.00;99.90;;;;;;5052679;28;20519;-52
2022/01/25 03:33:50;;;;;;;1.23;1.10;;;-2.00;99.90;;;;;;5058771;28;20481;-50
2022/01/25 03:36:17;;;;;;;1.07;0.97;;;-2.00;99.90;;;;;;5060201;28;20488;-52
2022/01/25 03:38:44;;;;;;;0.80;0.80;;;-2.00;99.90;;;;;;5048909;28;20490;-52
2022/01/25 03:41:14;;;;;;;1.33;0.90;;;-2.10;99.90;;;;;;5049424;28;20481;-51
2022/01/25 03:43:43;;;;;;;1.23;0.77;;;-2.10;99.90;;;;;;5060385;28;20485;-51
2022/01/25 03:46:15;;;;;;;1.10;0.97;;;-2.10;99.90;;;;;;5062434;28;20480;-52
2022/01/25 03:51:27;;;;;;;1.10;1.00;;;-2.20;99.90;;;;;;5038436;28;20445;-52
2022/01/25 03:53:54;;;;;;;1.53;1.27;;;-2.20;99.90;;;;;;5054990;28;20482;-50
2022/01/25 03:56:24;;;;;;;1.80;1.40;;;-2.20;99.90;;;;;;5061010;28;20477;-50
2022/01/25 03:58:51;;;;;;;2.97;0.83;;;-2.20;99.90;;;;;;5047727;28;20478;-51
2022/01/25 04:01:18;;;;;;;1.50;1.40;;;-2.20;99.90;;;;;;5049095;28;20448;-51
2022/01/25 04:03:54;;;;;;;1.40;1.30;;;-2.20;99.90;;;;;;5046843;28;20449;-50
2022/01/25 04:06:21;;;;;;;1.57;1.30;;;-2.20;99.90;;;;;;5056140;28;20517;-50
2022/01/25 04:08:49;;;;;;;0.90;0.90;;;-2.30;99.90;;;;;;5056463;28;20538;-51
2022/01/25 04:11:16;;;;;;;1.30;1.20;;;-2.30;99.90;;;;;;5052791;28;20474;-51
2022/01/25 04:13:44;;;;;;;1.10;1.00;;;-2.30;99.90;;;;;;5049277;28;20455;-52
2022/01/25 04:16:15;;;;;;;0.80;0.80;;;-2.30;99.90;;;;;;5060102;28;20983;-51
2022/01/25 04:18:55;;;;;;;1.20;1.10;;;-2.20;99.90;;;;;;5053134;28;20446;-50
2022/01/25 04:21:43;;;;;;;0.90;0.90;;;-2.20;99.90;;;;;;5054535;28;20487;-50
2022/01/25 04:26:57;;;;;;;1.00;0.90;;;-2.10;99.90;;;;;;5051772;28;20475;-50
2022/01/25 04:29:27;;;;;;;0.60;0.60;;;-2.10;99.90;;;;;;5053937;28;20483;-51
2022/01/25 04:31:54;;;;;;;1.13;1.00;;;-2.20;99.90;;;;;;5054460;28;20492;-51
2022/01/25 04:51:17;;;;;;;0.70;0.70;;;-2.20;99.90;;;;;;5056575;28;20438;-51
2022/01/25 04:53:52;;;;;;;0.60;0.60;;;-2.20;99.90;;;;;;5056279;28;20443;-53
2022/01/25 04:56:24;;;;;;;0.80;0.63;;;-2.20;99.90;;;;;;5049972;28;20469;-53
2022/01/25 04:58:58;;;;;;;0.60;0.57;;;-2.20;99.90;;;;;;5039951;28;20441;-50
2022/01/25 05:01:27;;;;;;;1.40;1.30;;;-2.30;99.90;;;;;;5042232;28;20503;-52
2022/01/25 05:04:00;;;;;;;8.03;5.40;;;-2.40;99.90;;;;;;5055787;28;20448;-53
2022/01/25 05:06:29;;;;;;;17.80;12.70;;;-2.50;99.90;;;;;;5051959;28;20484;-51
2022/01/25 05:09:05;;;;;;;14.53;9.40;;;-2.50;99.90;;;;;;5048384;28;20640;-52
2022/01/25 05:11:35;;;;;;;9.00;7.50;;;-2.50;99.90;;;;;;5050678;28;20914;-52
2022/01/25 05:14:15;;;;;;;5.83;5.23;;;-2.40;99.90;;;;;;5053859;28;20701;-51
2022/01/25 05:16:56;;;;;;;4.13;3.43;;;-2.40;99.90;;;;;;5051094;28;20504;-50
2022/01/25 05:22:03;;;;;;;2.90;2.50;;;-2.30;99.90;;;;;;5048867;28;20503;-50
2022/01/25 05:22:25;;;;;;;4.03;3.50;;;-2.20;99.90;;;;;;5055976;28;20457;-52
2022/01/25 05:24:53;;;;;;;9.27;8.37;;;-2.20;99.90;;;;;;5040023;28;20456;-50
2022/01/25 05:27:22;;;;;;;13.03;11.73;;;-2.20;99.90;;;;;;5047359;28;20982;-46
2022/01/25 05:29:50;;;;;;;9.50;8.60;;;-2.20;99.90;;;;;;5046208;28;20471;-48
2022/01/25 05:32:18;;;;;;;8.57;7.87;;;-2.20;99.90;;;;;;5054145;28;20446;-51
2022/01/25 05:34:45;;;;;;;7.80;7.03;;;-2.20;99.90;;;;;;5051067;28;20553;-51
2022/01/25 05:37:12;;;;;;;4.50;4.20;;;-2.20;99.90;;;;;;5047290;28;20505;-50
2022/01/25 05:39:39;;;;;;;2.60;2.10;;;-2.20;99.90;;;;;;5062123;28;20444;-50
2022/01/25 05:42:29;;;;;;;3.23;2.97;;;-2.30;99.90;;;;;;5053402;28;20952;-50
2022/01/25 05:45:00;;;;;;;4.47;2.97;;;-2.30;99.90;;;;;;5051490;28;20810;-52
2022/01/25 05:47:31;;;;;;;2.37;2.17;;;-2.40;99.90;;;;;;5046443;28;20481;-52
2022/01/25 05:49:59;;;;;;;2.83;2.63;;;-2.40;99.90;;;;;;5062621;28;20532;-51
2022/01/25 05:52:27;;;;;;;3.03;2.63;;;-2.40;99.90;;;;;;5066689;28;20472;-53
2022/01/25 05:54:56;;;;;;;2.30;2.10;;;-2.40;99.90;;;;;;5053693;28;20790;-51
2022/01/25 05:57:23;;;;;;;2.60;2.40;;;-2.30;99.90;;;;;;5050486;28;20474;-50
2022/01/25 05:59:50;;;;;;;2.77;2.47;;;-2.30;99.90;;;;;;5061447;28;20497;-51
2022/01/25 06:02:20;;;;;;;2.93;2.60;;;-2.40;99.90;;;;;;5057501;28;20506;-51
2022/01/25 06:04:48;;;;;;;2.53;2.33;;;-2.40;99.90;;;;;;5044747;28;20472;-50
2022/01/25 06:07:15;;;;;;;1.60;1.50;;;-2.40;99.90;;;;;;5040857;28;20979;-49
2022/01/25 06:09:42;;;;;;;2.33;1.80;;;-2.50;99.90;;;;;;5054893;28;20489;-51
2022/01/25 06:12:11;;;;;;;2.17;1.50;;;-2.60;99.90;;;;;;5041307;28;20453;-51
2022/01/25 06:14:38;;;;;;;3.30;3.07;;;-2.70;99.90;;;;;;5055877;28;20996;-49
2022/01/25 06:17:05;;;;;;;7.17;5.47;;;-2.70;99.90;;;;;;5043018;28;20521;-51
2022/01/25 06:19:32;;;;;;;8.60;6.63;;;-2.70;99.90;;;;;;5052186;28;20495;-52
2022/01/25 06:22:00;;;;;;;7.20;5.80;;;-2.70;99.90;;;;;;5053920;28;20511;-47
2022/01/25 06:24:27;;;;;;;2.97;2.50;;;-2.60;99.90;;;;;;5054344;28;20480;-50
2022/01/25 06:26:55;;;;;;;2.70;2.37;;;-2.60;99.90;;;;;;5046118;28;20980;-51
2022/01/25 06:29:22;;;;;;;2.20;1.67;;;-2.50;99.90;;;;;;5056326;28;20480;-50
2022/01/25 06:31:49;;;;;;;3.30;2.07;;;-2.50;99.90;;;;;;5064274;28;20512;-49
2022/01/25 06:34:16;;;;;;;4.87;4.47;;;-2.50;99.90;;;;;;5065553;28;20437;-50
2022/01/25 06:36:44;;;;;;;4.47;3.30;;;-2.40;99.90;;;;;;5052423;28;20530;-51
2022/01/25 06:39:13;;;;;;;4.10;3.80;;;-2.40;99.90;;;;;;5053985;28;20497;-51
2022/01/25 06:41:40;;;;;;;1.27;1.20;;;-2.40;99.90;;;;;;5054559;28;20453;-52
2022/01/25 06:44:07;;;;;;;1.97;1.60;;;-2.60;99.90;;;;;;5056156;28;21003;-50
2022/01/25 06:46:34;;;;;;;1.60;1.50;;;-2.60;99.90;;;;;;5051746;28;21009;-51
2022/01/25 06:49:01;;;;;;;1.70;1.60;;;-2.60;99.90;;;;;;5059234;28;20498;-49
2022/01/25 06:51:29;;;;;;;3.50;3.20;;;-2.50;99.90;;;;;;5059781;28;20506;-51
2022/01/25 06:53:56;;;;;;;6.20;4.70;;;-2.50;99.90;;;;;;5059684;28;20957;-51
2022/01/25 06:56:25;;;;;;;5.37;4.87;;;-2.60;99.90;;;;;;5053206;28;21022;-50
2022/01/25 06:58:51;;;;;;;13.87;9.40;;;-2.70;99.90;;;;;;5053556;28;20478;-51
2022/01/25 07:01:19;;;;;;;19.67;11.43;;;-2.60;99.90;;;;;;5060887;28;20502;-50
2022/01/25 07:03:46;;;;;;;8.43;4.80;;;-2.60;99.90;;;;;;5061126;28;20490;-51
2022/01/25 07:06:13;;;;;;;9.70;6.30;;;-2.90;99.90;;;;;;5074763;22;20488;-57
2022/01/25 07:08:41;;;;;;;7.90;6.40;;;-2.70;99.90;;;;;;5051752;28;20473;-55
2022/01/25 07:11:08;;;;;;;3.60;3.10;;;-2.70;99.90;;;;;;5057391;28;20450;-57
2022/01/25 07:13:36;;;;;;;10.77;7.47;;;-2.90;99.90;;;;;;5063865;28;20473;-56
2022/01/25 07:16:03;;;;;;;3.57;3.27;;;-2.90;99.90;;;;;;5061268;28;20526;-57
2022/01/25 07:18:30;;;;;;;11.13;8.43;;;-2.80;99.90;;;;;;5049669;28;20481;-57
2022/01/25 07:20:57;;;;;;;10.83;7.23;;;-2.80;99.90;;;;;;5047469;28;20476;-57
2022/01/25 07:23:24;;;;;;;3.60;3.30;;;-2.70;99.90;;;;;;5057981;28;20484;-55
2022/01/25 07:25:51;;;;;;;2.90;2.70;;;-2.70;99.90;;;;;;5061295;28;20468;-57
2022/01/25 07:28:18;;;;;;;6.27;5.13;;;-2.70;99.90;;;;;;5055096;28;20491;-57
2022/01/25 07:30:47;;;;;;;8.10;6.70;;;-2.60;99.90;;;;;;5056697;28;20483;-57
2022/01/25 07:33:14;;;;;;;11.23;9.10;;;-2.60;99.90;;;;;;5054025;28;20485;-57
2022/01/25 07:35:41;;;;;;;3.47;3.17;;;-2.50;99.90;;;;;;5058080;28;20476;-57
2022/01/25 07:38:09;;;;;;;3.60;2.50;;;-2.50;99.90;;;;;;5050686;28;20515;-56
2022/01/25 07:40:37;;;;;;;2.97;2.40;;;-2.50;99.90;;;;;;5054820;28;20481;-56
2022/01/25 07:43:04;;;;;;;3.90;2.37;;;-2.40;99.90;;;;;;5054705;28;20504;-56
2022/01/25 07:45:35;;;;;;;2.37;2.10;;;-2.50;99.90;;;;;;5050425;28;20476;-56
2022/01/25 07:48:04;;;;;;;2.70;2.50;;;-2.70;99.90;;;;;;5051803;28;20529;-56
2022/01/25 07:50:31;;;;;;;2.13;1.93;;;-2.60;99.90;;;;;;5052024;28;20734;-56
2022/01/25 07:52:58;;;;;;;1.90;1.80;;;-2.50;99.90;;;;;;5058719;28;20485;-57
2022/01/25 07:55:25;;;;;;;5.47;3.47;;;-2.80;99.90;;;;;;5061896;28;20470;-55
2022/01/25 07:57:52;;;;;;;5.83;3.20;;;-3.00;99.90;;;;;;5059562;28;20487;-57
2022/01/25 08:00:20;;;;;;;6.83;3.50;;;-2.90;99.90;;;;;;5052014;28;20491;-55
2022/01/25 08:02:47;;;;;;;7.20;5.30;;;-2.90;99.90;;;;;;5057431;28;20472;-56
2022/01/25 08:05:17;;;;;;;3.50;2.77;;;-2.80;99.90;;;;;;5055764;28;20727;-55
2022/01/25 08:07:44;;;;;;;3.20;2.90;;;-2.90;99.90;;;;;;5049340;28;20564;-56
2022/01/25 08:10:12;;;;;;;3.93;3.00;;;-2.80;99.90;;;;;;5054775;28;20468;-57
2022/01/25 08:12:39;;;;;;;5.00;3.10;;;-2.80;99.90;;;;;;5055192;28;20481;-56
2022/01/25 08:15:08;;;;;;;5.70;3.70;;;-2.70;99.90;;;;;;5058661;28;20507;-55
2022/01/25 08:17:35;;;;;;;3.97;3.23;;;-2.70;99.90;;;;;;5045020;28;20873;-56
2022/01/25 08:20:03;;;;;;;3.73;2.73;;;-2.70;99.90;;;;;;5052002;28;20474;-55
2022/01/25 08:22:33;;;;;;;4.73;3.03;;;-2.60;99.90;;;;;;5055268;28;20474;-56
2022/01/25 08:25:00;;;;;;;2.70;2.50;;;-2.50;99.90;;;;;;5063934;28;20489;-55
2022/01/25 08:27:27;;;;;;;4.70;2.77;;;-2.40;99.90;;;;;;5055913;28;20512;-55
2022/01/25 08:29:55;;;;;;;10.70;9.50;;;-2.30;99.90;;;;;;5044499;28;20480;-56
2022/01/25 08:32:22;;;;;;;7.63;5.60;;;-2.30;99.90;;;;;;5049871;28;20482;-54
2022/01/25 08:34:50;;;;;;;8.37;4.30;;;-2.30;99.90;;;;;;5060066;28;20469;-56
2022/01/25 08:37:17;;;;;;;6.40;4.70;;;-2.70;99.90;;;;;;5063105;28;20495;-55
2022/01/25 08:39:46;;;;;;;5.17;3.50;;;-2.70;99.90;;;;;;5055597;28;20636;-55
2022/01/25 08:42:13;;;;;;;8.77;7.80;;;-2.60;99.90;;;;;;5044569;28;20478;-57
2022/01/25 08:44:40;;;;;;;9.87;7.20;;;-2.50;99.90;;;;;;5057073;28;20488;-55
2022/01/25 08:47:08;;;;;;;8.57;7.77;;;-2.60;99.90;;;;;;5055706;28;21000;-56
2022/01/25 08:49:36;;;;;;;6.10;5.50;;;-2.60;99.90;;;;;;5059928;28;20998;-55
2022/01/25 08:52:04;;;;;;;3.33;3.13;;;-2.70;99.90;;;;;;5059997;28;20479;-55
2022/01/25 08:54:31;;;;;;;3.23;2.83;;;-2.90;99.90;;;;;;5064530;28;20469;-55
2022/01/25 08:56:59;;;;;;;2.90;2.50;;;-3.00;99.90;;;;;;5061615;28;21033;-56
2022/01/25 08:59:27;;;;;;;3.43;2.90;;;-2.90;99.90;;;;;;5059072;28;20476;-54
2022/01/25 09:01:54;;;;;;;4.13;3.40;;;-2.80;99.90;;;;;;5056951;28;20476;-55
2022/01/25 09:04:21;;;;;;;2.50;2.00;;;-2.60;99.90;;;;;;5055958;28;20495;-55
2022/01/25 09:06:48;;;;;;;3.07;2.53;;;-2.70;99.90;;;;;;5068359;28;20508;-55
2022/01/25 09:09:15;;;;;;;5.23;3.70;;;-2.60;99.90;;;;;;5058495;28;20465;-55
2022/01/25 09:11:42;;;;;;;3.63;3.33;;;-2.50;99.90;;;;;;5049357;28;20621;-55
2022/01/25 09:14:11;;;;;;;4.63;2.97;;;-2.30;99.90;;;;;;5058496;28;20492;-55
2022/01/25 09:16:39;;;;;;;3.20;2.50;;;-2.30;99.90;;;;;;5063168;28;20491;-55
2022/01/25 09:19:07;;;;;;;4.00;2.70;;;-2.40;99.90;;;;;;5057915;28;20501;-55
2022/01/25 09:21:34;;;;;;;7.27;5.13;;;-2.40;99.90;;;;;;5051328;28;20481;-55
2022/01/25 09:24:02;;;;;;;6.20;5.60;;;-2.50;99.90;;;;;;5055884;28;20789;-57
2022/01/25 09:26:29;;;;;;;12.20;7.13;;;-2.30;99.90;;;;;;5061553;28;20527;-55
2022/01/25 09:28:57;;;;;;;9.10;6.80;;;-2.40;99.90;;;;;;5059627;28;20492;-57
2022/01/25 09:31:26;;;;;;;7.63;4.87;;;-2.30;99.90;;;;;;5060399;28;20540;-54
2022/01/25 09:33:54;;;;;;;10.60;7.50;;;-0.40;99.90;;;;;;5055535;28;20984;-55
2022/01/25 09:36:21;;;;;;;19.80;13.00;;;1.60;99.90;;;;;;5058008;28;20503;-55
2022/01/25 09:38:48;;;;;;;8.27;6.70;;;2.40;99.90;;;;;;5053981;28;20474;-55
2022/01/25 09:41:15;;;;;;;4.73;3.70;;;3.10;99.90;;;;;;5052436;28;20483;-55
2022/01/25 09:43:42;;;;;;;5.60;3.60;;;4.00;99.90;;;;;;5053457;28;20819;-55
2022/01/25 09:46:09;;;;;;;7.10;4.27;;;4.60;99.90;;;;;;5060496;28;20960;-56
2022/01/25 09:48:37;;;;;;;3.10;2.63;;;4.50;99.90;;;;;;5060827;28;20555;-55
2022/01/25 09:51:08;;;;;;;3.40;2.63;;;5.00;99.90;;;;;;5056931;28;20480;-55
2022/01/25 09:53:35;;;;;;;3.40;3.10;;;5.10;99.90;;;;;;5048296;28;20485;-55
2022/01/25 09:56:02;;;;;;;5.00;3.30;;;5.40;99.90;;;;;;5059381;28;20591;-56
2022/01/25 09:58:29;;;;;;;3.20;2.73;;;5.00;99.90;;;;;;5064275;28;20471;-56
2022/01/25 10:01:01;;;;;;;3.13;2.43;;;5.40;99.90;;;;;;5061879;28;20495;-57
2022/01/25 10:03:34;;;;;;;1.70;1.60;;;6.00;99.90;;;;;;5052706;28;20522;-57
2022/01/25 10:06:03;;;;;;;3.93;3.40;;;6.30;99.90;;;;;;5055390;28;20453;-56
2022/01/25 10:08:32;;;;;;;5.77;4.33;;;5.50;99.90;;;;;;5050610;28;20481;-55
2022/01/25 10:11:02;;;;;;;8.10;5.77;;;4.50;99.90;;;;;;5058685;28;20474;-55
2022/01/25 10:13:30;;;;;;;7.33;5.97;;;3.90;99.90;;;;;;5056183;28;20475;-56
2022/01/25 10:16:02;;;;;;;8.47;4.53;;;3.30;99.90;;;;;;5056701;28;20462;-55
2022/01/25 10:18:39;;;;;;;5.17;4.67;;;2.50;99.90;;;;;;5048742;28;20472;-57
2022/01/25 10:21:12;;;;;;;4.93;4.43;;;2.10;99.90;;;;;;5055363;28;20511;-55
2022/01/25 10:23:40;;;;;;;5.80;5.20;;;1.70;99.90;;;;;;5056046;28;20445;-56
2022/01/25 10:26:08;;;;;;;5.63;5.10;;;1.50;99.90;;;;;;5055719;28;20452;-55
2022/01/25 10:28:35;;;;;;;8.27;4.53;;;1.30;99.90;;;;;;5058568;28;20989;-55
2022/01/25 10:31:04;;;;;;;4.87;4.37;;;1.10;99.90;;;;;;5064368;28;20473;-55
2022/01/25 10:33:37;;;;;;;3.53;3.23;;;0.90;99.90;;;;;;5059245;28;20479;-56
2022/01/25 10:36:14;;;;;;;4.10;3.77;;;0.70;99.90;;;;;;5050847;28;20534;-55
2022/01/25 10:38:43;;;;;;;4.20;3.80;;;0.70;99.90;;;;;;5052088;28;20823;-55
2022/01/25 10:41:12;;;;;;;5.43;3.60;;;0.60;99.90;;;;;;5049850;28;20494;-56
2022/01/25 10:43:40;;;;;;;3.90;3.60;;;0.60;99.90;;;;;;5065728;28;20468;-55
2022/01/25 10:46:13;;;;;;;5.03;4.03;;;0.60;99.90;;;;;;5053618;28;20932;-55
2022/01/25 10:48:43;;;;;;;4.10;3.57;;;0.60;99.90;;;;;;5048174;28;20484;-56
2022/01/25 10:51:14;;;;;;;4.20;3.60;;;0.60;99.90;;;;;;5057881;28;20507;-55
2022/01/25 10:53:41;;;;;;;3.13;2.93;;;0.70;99.90;;;;;;5063166;28;20445;-56
2022/01/25 10:56:09;;;;;;;6.20;3.50;;;0.70;99.90;;;;;;5061513;28;20476;-55
2022/01/25 10:58:42;;;;;;;4.93;4.47;;;0.70;99.90;;;;;;5049928;28;20479;-55
2022/01/25 11:01:11;;;;;;;8.57;6.03;;;0.70;99.90;;;;;;5049707;28;20907;-54
2022/01/25 11:03:41;;;;;;;9.07;5.73;;;0.60;99.90;;;;;;5053927;28;20446;-55
2022/01/25 11:06:18;;;;;;;10.27;7.50;;;0.70;99.90;;;;;;5057888;28;20533;-58
2022/01/25 11:08:49;;;;;;;9.90;5.90;;;0.60;99.90;;;;;;5058634;28;20486;-54
2022/01/25 11:11:26;;;;;;;8.50;6.43;;;0.60;99.90;;;;;;5058308;28;20485;-55
2022/01/25 11:13:54;;;;;;;14.83;13.23;;;0.60;99.90;;;;;;5053480;28;20448;-55
2022/01/25 11:16:22;;;;;;;11.70;8.77;;;0.60;99.90;;;;;;5055293;28;21031;-56
2022/01/25 11:18:49;;;;;;;11.43;7.90;;;0.70;99.90;;;;;;5057826;28;20436;-56
2022/01/25 11:21:18;;;;;;;9.20;7.73;;;0.80;99.90;;;;;;5053388;28;20875;-57
2022/01/25 11:23:46;;;;;;;8.70;7.03;;;0.90;99.90;;;;;;5057529;28;20949;-56
2022/01/25 11:26:14;;;;;;;6.27;5.20;;;0.90;99.90;;;;;;5063412;28;20922;-56
2022/01/25 11:28:44;;;;;;;12.07;8.60;;;1.00;99.90;;;;;;5059493;28;20507;-56
2022/01/25 11:31:15;;;;;;;11.90;9.40;;;1.00;99.90;;;;;;5048115;28;20481;-57
2022/01/25 11:33:47;;;;;;;10.70;7.93;;;1.00;99.90;;;;;;5045535;28;20761;-56
2022/01/25 11:36:15;;;;;;;7.93;7.20;;;1.10;99.90;;;;;;5038631;28;20946;-57
2022/01/25 11:38:45;;;;;;;7.73;7.00;;;1.20;99.90;;;;;;5040414;28;20470;-56
2022/01/25 11:41:15;;;;;;;7.43;6.60;;;1.30;99.90;;;;;;5044330;28;20619;-55
2022/01/25 11:43:43;;;;;;;7.10;5.90;;;1.30;99.90;;;;;;5043399;28;20478;-55
2022/01/25 11:46:10;;;;;;;6.63;6.00;;;1.40;99.90;;;;;;5044136;28;20477;-57
2022/01/25 11:48:44;;;;;;;7.93;6.20;;;1.40;99.90;;;;;;5044812;28;20925;-55
2022/01/25 11:51:17;;;;;;;6.67;6.07;;;1.50;99.90;;;;;;5060855;28;20443;-57
2022/01/25 11:53:47;;;;;;;8.10;6.90;;;1.50;99.90;;;;;;5058015;28;20486;-56
2022/01/25 11:56:15;;;;;;;7.03;6.33;;;1.60;99.90;;;;;;5052245;28;21055;-57
2022/01/25 11:58:52;;;;;;;5.90;5.30;;;1.60;99.90;;;;;;5055173;28;20483;-58
2022/01/25 12:01:21;;;;;;;5.77;5.33;;;1.70;99.90;;;;;;5061827;28;20469;-55
2022/01/25 12:03:51;;;;;;;5.77;5.20;;;1.70;99.90;;;;;;5058015;28;20859;-56
2022/01/25 12:06:22;;;;;;;8.33;6.17;;;1.70;99.90;;;;;;5055642;28;20479;-57
2022/01/25 12:09:17;;;;;;;5.53;4.90;;;1.80;99.90;;;;;;5049120;28;20487;-56
2022/01/25 12:11:47;;;;;;;7.03;5.23;;;1.80;99.90;;;;;;5054798;28;20455;-56
2022/01/25 12:14:23;;;;;;;5.70;5.20;;;1.80;99.90;;;;;;5054260;28;20548;-56
2022/01/25 12:16:53;;;;;;;6.73;6.00;;;1.90;99.90;;;;;;5056539;28;20544;-56
2022/01/25 12:19:22;;;;;;;7.10;6.40;;;1.90;99.90;;;;;;5045981;28;20465;-57
2022/01/25 12:22:08;;;;;;;6.70;5.97;;;1.90;99.90;;;;;;5052622;28;21021;-56
2022/01/25 12:24:51;;;;;;;9.33;6.70;;;2.00;99.90;;;;;;5053679;28;20472;-56
2022/01/25 12:27:23;;;;;;;10.37;8.47;;;1.90;99.90;;;;;;5054770;28;20461;-57
2022/01/25 12:30:00;;;;;;;8.47;7.67;;;1.80;99.90;;;;;;5057090;28;20778;-55
2022/01/25 12:32:30;;;;;;;6.30;5.57;;;1.90;99.90;;;;;;5047454;28;20980;-57
2022/01/25 12:35:03;;;;;;;6.57;5.53;;;1.90;99.90;;;;;;5051305;28;20776;-55
2022/01/25 12:37:56;;;;;;;7.40;6.70;;;2.00;99.90;;;;;;5053042;28;20954;-58
2022/01/25 12:40:49;;;;;;;5.87;4.90;;;2.10;99.90;;;;;;5050050;28;20518;-56
2022/01/25 12:43:19;;;;;;;6.17;4.77;;;2.10;99.90;;;;;;5054977;28;20497;-57
2022/01/25 12:45:49;;;;;;;6.07;5.30;;;2.10;99.90;;;;;;5058719;28;20450;-57
2022/01/25 12:48:17;;;;;;;6.87;5.27;;;2.10;99.90;;;;;;5055987;28;20515;-55
2022/01/25 12:50:47;;;;;;;7.17;6.40;;;2.10;99.90;;;;;;5055748;28;20462;-56
2022/01/25 12:53:17;;;;;;;7.10;6.40;;;2.10;99.90;;;;;;5051347;28;20474;-56
2022/01/25 12:55:48;;;;;;;8.60;5.90;;;2.20;99.90;;;;;;5058788;28;20922;-57
2022/01/25 12:58:15;;;;;;;6.53;5.87;;;2.30;99.90;;;;;;5051009;28;20598;-56
2022/01/25 13:00:45;;;;;;;8.00;6.00;;;2.30;99.90;;;;;;5056208;28;20515;-56
2022/01/25 13:03:15;;;;;;;7.67;6.97;;;2.30;99.90;;;;;;5058185;28;20869;-55
2022/01/25 13:05:44;;;;;;;7.07;6.10;;;2.40;99.90;;;;;;5058032;28;20444;-56
2022/01/25 13:08:23;;;;;;;7.50;6.33;;;2.30;99.90;;;;;;5106909;23;20527;-49
2022/01/25 13:10:54;;;;;;;7.23;5.90;;;2.40;99.90;;;;;;5052963;28;20955;-47
2022/01/25 13:13:28;;;;;;;5.73;5.13;;;2.40;99.90;;;;;;5049211;28;20814;-48
2022/01/25 13:15:57;;;;;;;8.17;4.60;;;2.40;99.90;;;;;;5048469;28;20449;-48
2022/01/25 13:18:27;;;;;;;7.17;6.47;;;2.40;99.90;;;;;;5055190;28;20468;-50
2022/01/25 13:21:06;;;;;;;6.33;5.33;;;2.50;99.90;;;;;;5048343;28;20997;-49
2022/01/25 13:23:33;;;;;;;6.10;5.50;;;2.50;99.90;;;;;;5051963;28;20934;-48
2022/01/25 13:26:12;;;;;;;5.60;5.20;;;2.50;99.90;;;;;;5058127;28;20449;-51
2022/01/25 13:28:54;;;;;;;5.30;4.90;;;2.50;99.90;;;;;;5061684;28;20503;-49
2022/01/25 13:31:23;;;;;;;4.83;4.23;;;2.50;99.90;;;;;;5050007;28;20442;-50
2022/01/25 13:33:53;;;;;;;7.00;4.30;;;2.50;99.90;;;;;;5050790;28;20436;-47
2022/01/25 13:36:22;;;;;;;5.10;4.00;;;2.50;99.90;;;;;;5054858;28;20977;-49
2022/01/25 13:38:50;;;;;;;6.23;5.43;;;2.50;99.90;;;;;;5062260;28;20452;-49
2022/01/25 13:41:24;;;;;;;9.03;5.07;;;2.50;99.90;;;;;;5059083;28;20486;-48
2022/01/25 13:46:37;;;;;;;5.97;4.57;;;2.60;99.90;;;;;;5018601;28;20469;-48
2022/01/25 13:49:06;;;;;;;6.03;5.50;;;2.60;99.90;;;;;;5057328;28;20540;-51
2022/01/25 13:51:41;;;;;;;6.77;5.40;;;2.70;99.90;;;;;;5064354;28;20473;-49
2022/01/25 13:54:08;;;;;;;5.67;4.80;;;2.60;99.90;;;;;;5065595;28;20464;-49
2022/01/25 13:56:37;;;;;;;4.60;4.20;;;2.60;99.90;;;;;;5058467;28;21023;-48
2022/01/25 13:59:06;;;;;;;4.40;4.00;;;2.60;99.90;;;;;;5056822;28;20477;-50
2022/01/25 14:01:35;;;;;;;4.83;4.07;;;2.60;99.90;;;;;;5058511;28;20508;-49
2022/01/25 14:04:04;;;;;;;4.40;3.90;;;2.60;99.90;;;;;;5062013;28;20474;-49
2022/01/25 14:06:34;;;;;;;4.77;4.37;;;2.70;99.90;;;;;;5059528;28;20510;-49
2022/01/25 14:09:06;;;;;;;3.80;3.50;;;2.70;99.90;;;;;;5055404;28;20848;-51
2022/01/25 14:11:50;;;;;;;5.43;3.47;;;2.70;99.90;;;;;;5058960;28;20927;-50